Weather History for Crosby, ND

Change the Weather History Date:

Sunday, March 24, 2013

  Actual Average (KISN) Record (KISN)
Temperature  
Mean Temperature 9 °F 33 °F  
Max Temperature 17 °F 45 °F 76 °F (1993)
Min Temperature 1 °F 22 °F -18 °F (1965)
Degree Days  
Heating Degree Days 56 32  
Month to date heating degree days 898  
Since 1 July heating degree days 7666  
Cooling Degree Days 0 0  
Month to date cooling degree days 0  
Year to date cooling degree days 0  
Moisture  
Dew Point 10 °F    
Average Humidity 89    
Maximum Humidity 93    
Minimum Humidity 85    
Precipitation  
Precipitation 1.75 in 0.02 in 0.50 in (1942)
Month to date precipitation 0.53  
Year to date precipitation 1.51  
Sea Level Pressure  
Sea Level Pressure 30.28 in    
Wind  
Wind Speed 15 mph (NW)    
Max Wind Speed 17 mph    
Max Gust Speed -    
Visibility 8 miles    
Events Snow    
T = Trace of Precipitation, MM = Missing Value Source: NWS Daily Summary

Daily Weather History Graph

Daily Weather History Graph

Search for Another Location

Airport:

Trip Planner

Search our weather history database for the weather conditions in past years. The results will help you decide how hot, cold, wet, or windy it might be!

Date:

Astronomy

Mar. 24, 2013 Rise Set
Actual Time 7:46 AM CDT 8:12 PM CDT
Civil Twilight 7:15 AM CDT 8:44 PM CDT
Nautical Twilight 6:37 AM CDT 9:21 PM CDT
Astronomical Twilight 5:58 AM CDT 10:01 PM CDT
Moon 5:33 PM CDT (3/24) 6:10 AM CDT (3/24)
Length of Visible Light 13h 29m
Length of Day
12h 25m
Waxing Gibbous, 92% of the Moon is Illuminated
Mar 24
Waxing Gibbous
Mar 27
Full
Apr 2
Last Quarter
Apr 10
New
Apr 18
First Quarter

Hourly Weather History & Observations

Time (CDT) Temp. Windchill Dew Point Humidity Pressure Visibility Wind Dir Wind Speed Gust Speed Precip Events Conditions
12:15 AM 14.0 °F -0.8 °F 12.2 °F 93% 30.23 in 8.0 mi NW 13.8 mph - 0.01 in Snow Light Snow
12:35 AM 14.0 °F -0.8 °F 12.2 °F 93% 30.23 in 10.0 mi NW 13.8 mph - 0.01 in Snow Light Snow
12:55 AM 14.0 °F -0.8 °F 12.2 °F 93% 30.23 in 4.0 mi NW 13.8 mph - 0.05 in Snow Light Snow
1:15 AM 15.8 °F 0.9 °F 14.0 °F 93% 30.22 in 2.0 mi NW 15.0 mph - 0.12 in Snow Light Snow
1:35 AM 15.8 °F 1.4 °F 14.0 °F 93% 30.22 in 3.0 mi NW 13.8 mph - 0.35 in Snow Light Snow
1:55 AM 15.8 °F 2.1 °F 14.0 °F 93% 30.22 in 5.0 mi NW 12.7 mph - 0.50 in Snow Light Snow
2:15 AM 15.8 °F 0.3 °F 12.2 °F 86% 30.22 in 6.0 mi NW 16.1 mph - 0.01 in Snow Light Snow
2:35 AM 14.0 °F -0.8 °F 12.2 °F 93% 30.22 in 10.0 mi NW 13.8 mph - 0.01 in   Overcast
2:55 AM 14.0 °F -1.4 °F 12.2 °F 93% 30.23 in 4.0 mi NW 15.0 mph - 0.05 in Snow Light Snow
3:15 AM 14.0 °F -1.4 °F 12.2 °F 93% 30.23 in 3.0 mi NW 15.0 mph - 0.12 in Snow Light Snow
3:35 AM 14.0 °F -2.0 °F 12.2 °F 93% 30.22 in 3.0 mi NW 16.1 mph - 0.22 in Snow Light Snow
3:55 AM 15.8 °F 0.9 °F 12.2 °F 86% 30.23 in 3.0 mi NW 15.0 mph - 0.30 in Snow Light Snow
4:15 AM 14.0 °F -1.4 °F 12.2 °F 93% 30.23 in 3.0 mi NW 15.0 mph - 0.12 in Snow Light Snow
4:35 AM 14.0 °F -2.0 °F 12.2 °F 93% 30.22 in 2.5 mi NW 16.1 mph - 0.28 in Snow Light Snow
4:55 AM 14.0 °F -1.4 °F 12.2 °F 93% 30.22 in 9.0 mi NW 15.0 mph - 0.31 in Snow Light Snow
5:15 AM 14.0 °F -2.5 °F 12.2 °F 93% 30.23 in 4.0 mi NW 17.3 mph - 0.06 in Snow Light Snow
5:35 AM 14.0 °F -2.5 °F 12.2 °F 93% 30.23 in 10.0 mi NW 17.3 mph - 0.08 in   Overcast
5:55 AM 14.0 °F -2.5 °F 12.2 °F 93% 30.23 in 10.0 mi NW 17.3 mph - 0.08 in   Overcast
6:15 AM 14.0 °F -2.0 °F 10.4 °F 86% 30.23 in 10.0 mi NW 16.1 mph - N/A Snow Light Snow
6:35 AM 14.0 °F -2.5 °F 10.4 °F 86% 30.24 in 9.0 mi NW 17.3 mph - N/A Snow Light Snow
6:55 AM 14.0 °F -2.0 °F 10.4 °F 86% 30.24 in 3.0 mi NW 16.1 mph - 0.05 in Snow Light Snow
7:15 AM 14.0 °F -0.8 °F 10.4 °F 86% 30.25 in 2.5 mi NW 13.8 mph - 0.02 in Snow Light Snow
7:35 AM 14.0 °F -0.8 °F 10.4 °F 86% 30.25 in 3.0 mi NNW 13.8 mph - 0.04 in Snow Light Snow
7:55 AM 14.0 °F -0.2 °F 10.4 °F 86% 30.25 in 2.5 mi NW 12.7 mph - 0.06 in Snow Light Snow
8:15 AM 14.0 °F -0.2 °F 12.2 °F 93% 30.26 in 1.0 mi NNW 12.7 mph - 0.17 in Snow Light Snow
8:35 AM 15.8 °F 1.4 °F 14.0 °F 93% 30.26 in 7.0 mi NNW 13.8 mph - 0.19 in Snow Light Snow
8:55 AM 15.8 °F 1.4 °F 14.0 °F 93% 30.26 in 2.0 mi NNW 13.8 mph - 0.21 in Snow Light Snow
9:15 AM 15.8 °F 0.9 °F 14.0 °F 93% 30.27 in 2.0 mi NNW 15.0 mph - 0.12 in Snow Light Snow
9:35 AM 15.8 °F 0.9 °F 12.2 °F 86% 30.27 in 9.0 mi NNW 15.0 mph - 0.14 in Snow Light Snow
9:55 AM 15.8 °F 0.3 °F 12.2 °F 86% 30.27 in 10.0 mi NNW 16.1 mph - 0.14 in   Overcast
10:15 AM 15.8 °F 0.9 °F 12.2 °F 86% 30.27 in 7.0 mi NNW 15.0 mph - N/A Snow Light Snow
10:35 AM 14.0 °F -2.0 °F 10.4 °F 86% 30.28 in 10.0 mi NNW 16.1 mph - N/A   Overcast
10:55 AM 14.0 °F -0.8 °F 10.4 °F 86% 30.28 in 10.0 mi NNW 13.8 mph - N/A   Mostly Cloudy
11:15 AM 14.0 °F -0.2 °F 10.4 °F 86% 30.29 in 10.0 mi NNW 12.7 mph - N/A   Partly Cloudy
11:35 AM 14.0 °F -1.4 °F 10.4 °F 86% 30.29 in 10.0 mi NNW 15.0 mph - N/A   Partly Cloudy
11:55 AM 14.0 °F -1.4 °F 10.4 °F 86% 30.29 in 10.0 mi NNW 15.0 mph - N/A   Partly Cloudy
12:15 PM 15.8 °F 0.3 °F 12.2 °F 86% 30.29 in 10.0 mi NNW 16.1 mph - N/A   Partly Cloudy
12:35 PM 17.6 °F 3.2 °F 14.0 °F 86% 30.30 in 10.0 mi NNW 15.0 mph - N/A   Scattered Clouds
12:55 PM 17.6 °F 2.7 °F 14.0 °F 86% 30.30 in 10.0 mi NNW 16.1 mph - N/A   Mostly Cloudy
1:15 PM 17.6 °F 3.2 °F 14.0 °F 86% 30.30 in 10.0 mi NNW 15.0 mph - N/A   Overcast
1:35 PM 17.6 °F 3.7 °F 14.0 °F 86% 30.31 in 10.0 mi NW 13.8 mph - N/A   Overcast
2:15 PM 15.8 °F 1.4 °F 12.2 °F 86% 30.31 in 10.0 mi NW 13.8 mph - N/A   Mostly Cloudy
2:35 PM 15.8 °F 0.3 °F 12.2 °F 86% 30.31 in 10.0 mi NW 16.1 mph - N/A   Scattered Clouds
2:55 PM 15.8 °F 0.3 °F 12.2 °F 86% 30.30 in 10.0 mi NW 16.1 mph - N/A   Scattered Clouds
3:15 PM 15.8 °F 0.3 °F 12.2 °F 86% 30.31 in 10.0 mi NW 16.1 mph - N/A   Partly Cloudy
3:35 PM 15.8 °F -0.2 °F 12.2 °F 86% 30.31 in 10.0 mi NW 17.3 mph - N/A   Clear
3:55 PM 15.8 °F 0.3 °F 12.2 °F 86% 30.30 in 10.0 mi NW 16.1 mph - N/A   Clear
4:15 PM 15.8 °F -0.2 °F 12.2 °F 86% 30.30 in 10.0 mi NW 17.3 mph - N/A   Clear
4:35 PM 15.8 °F -0.2 °F 14.0 °F 93% 30.31 in 10.0 mi NW 17.3 mph - N/A   Clear
4:55 PM 15.8 °F 0.9 °F 14.0 °F 93% 30.31 in 10.0 mi NW 15.0 mph - N/A   Clear
5:15 PM 15.8 °F 0.9 °F 14.0 °F 93% 30.31 in 10.0 mi NW 15.0 mph - N/A   Clear
5:35 PM 15.8 °F 0.3 °F 12.2 °F 86% 30.32 in 10.0 mi NW 16.1 mph - N/A   Clear
5:55 PM 15.8 °F 1.4 °F 12.2 °F 86% 30.32 in 10.0 mi NW 13.8 mph - N/A   Clear
6:15 PM 15.8 °F 1.4 °F 12.2 °F 86% 30.32 in 10.0 mi NW 13.8 mph - N/A   Clear
6:35 PM 14.0 °F -0.2 °F 10.4 °F 86% 30.33 in 10.0 mi NW 12.7 mph - N/A   Clear
6:55 PM 14.0 °F 0.5 °F 10.4 °F 86% 30.33 in 10.0 mi NW 11.5 mph - N/A   Clear
7:15 PM 12.2 °F -2.5 °F 8.6 °F 85% 30.33 in 10.0 mi NW 12.7 mph - N/A   Clear
7:35 PM 10.4 °F -4.8 °F 6.8 °F 85% 30.33 in 10.0 mi NW 12.7 mph - N/A   Clear
7:55 PM 8.6 °F -7.0 °F 5.0 °F 85% 30.33 in 10.0 mi NW 12.7 mph - N/A   Clear
8:15 PM 6.8 °F -9.3 °F 5.0 °F 92% 30.33 in 10.0 mi NW 12.7 mph - N/A   Clear
8:35 PM 5.0 °F -11.6 °F 3.2 °F 92% 30.33 in 10.0 mi WNW 12.7 mph - N/A   Clear
8:55 PM 5.0 °F -10.0 °F 1.4 °F 85% 30.33 in 10.0 mi WNW 10.4 mph - N/A   Clear
9:15 PM 1.4 °F -15.3 °F -0.4 °F 92% 30.33 in 10.0 mi WNW 11.5 mph - N/A   Clear
9:35 PM 1.4 °F -14.5 °F -0.4 °F 92% 30.33 in 10.0 mi WNW 10.4 mph - N/A   Clear
9:55 PM 1.4 °F -16.9 °F -0.4 °F 92% 30.34 in 10.0 mi WNW 13.8 mph - N/A   Clear
10:15 PM 1.4 °F -16.1 °F -0.4 °F 92% 30.34 in 10.0 mi WNW 12.7 mph - N/A   Clear
10:35 PM 1.4 °F -16.1 °F -0.4 °F 92% 30.34 in 10.0 mi WNW 12.7 mph - N/A   Clear
10:55 PM 1.4 °F -16.9 °F -0.4 °F 92% 30.34 in 10.0 mi WNW 13.8 mph - N/A   Clear
11:15 PM 1.4 °F -16.9 °F -0.4 °F 92% 30.34 in 10.0 mi WNW 13.8 mph - N/A   Clear
11:35 PM 1.4 °F -16.1 °F -2.2 °F 85% 30.34 in 10.0 mi WNW 12.7 mph - N/A   Clear
11:55 PM 1.4 °F -16.1 °F -2.2 °F 85% 30.34 in 10.0 mi WNW 12.7 mph - N/A   Clear